Aviation Digital Data Service (ADDS)

Output produced by METARs form (0120 UTC 20 September 2020)
found at http://www.aviationweather.gov/metar/data/
 
METAR text: RCSS 200104Z 09004KT 7000 VCTS -SHRA FEW003 SCT012 FEW015CB BKN025 26/25 Q1013 NOSIG RMK TS NE-SE MOV SE A2993
Conditions at: RCSS (SUNGSHAN/TAIPEI , TW) observed 0104 UTC 20 September 2020
Temperature: 26.0°C (79°F)
Dewpoint: 25.0°C (77°F) [RH = 94%]
Pressure (altimeter): 29.91 inches Hg (1013.0 mb)
Winds: from the E (90 degrees) at 5 MPH (4 knots; 2.1 m/s)
Visibility: 4 miles ( 7 km)
Ceiling: 2500 feet AGL
Clouds: few clouds at 300 feet AGL
scattered clouds at 1200 feet AGL
few clouds at 1500 feet AGL
broken clouds at 2500 feet AGL
Weather: VCTS -SHRA  (thunderstorm in vicinity, light rain showers)

METAR text: RCSS 200100Z 09005KT 8000 -SHRA FEW003 SCT012 FEW015CB BKN025 26/25 Q1013 NOSIG RMK CB NE-SE A2993 RA AMT 1.2MM
Conditions at: RCSS (SUNGSHAN/TAIPEI , TW) observed 0100 UTC 20 September 2020
Temperature: 26.0°C (79°F)
Dewpoint: 25.0°C (77°F) [RH = 94%]
Pressure (altimeter): 29.91 inches Hg (1013.0 mb)
Winds: from the E (90 degrees) at 6 MPH (5 knots; 2.6 m/s)
Visibility: 5 miles ( 8 km)
Ceiling: 2500 feet AGL
Clouds: few clouds at 300 feet AGL
scattered clouds at 1200 feet AGL
few clouds at 1500 feet AGL
broken clouds at 2500 feet AGL
Weather: -SHRA  (light rain showers)

METAR text: RCSS 200037Z 08007KT 5000 -SHRA FEW003 BKN012 FEW015CB BKN030 26/25 Q1013 NOSIG RMK CB E-SE A2992
Conditions at: RCSS (SUNGSHAN/TAIPEI , TW) observed 0037 UTC 20 September 2020
Temperature: 26.0°C (79°F)
Dewpoint: 25.0°C (77°F) [RH = 94%]
Pressure (altimeter): 29.91 inches Hg (1013.0 mb)
Winds: from the E (80 degrees) at 8 MPH (7 knots; 3.6 m/s)
Visibility: 3 miles ( 5 km)
Ceiling: 1200 feet AGL
Clouds: few clouds at 300 feet AGL
broken clouds at 1200 feet AGL
few clouds at 1500 feet AGL
broken clouds at 3000 feet AGL
Weather: -SHRA  (light rain showers)

METAR text: RCSS 200030Z 09008KT 7000 3000E -SHRA FEW003 BKN012 FEW015TCU BKN030 26/25 Q1013 RETS NOSIG RMK TCU E-SE A2992
Conditions at: RCSS (SUNGSHAN/TAIPEI , TW) observed 0030 UTC 20 September 2020
Temperature: 26.0°C (79°F)
Dewpoint: 25.0°C (77°F) [RH = 94%]
Pressure (altimeter): 29.91 inches Hg (1013.0 mb)
Winds: from the E (90 degrees) at 9 MPH (8 knots; 4.1 m/s)
Visibility: 4 miles ( 7 km)
Ceiling: 1200 feet AGL
Clouds: few clouds at 300 feet AGL
broken clouds at 1200 feet AGL
few clouds at 1500 feet AGL
broken clouds at 3000 feet AGL
Weather: -SHRA  (light rain showers)

METAR text: RCSS 200027Z 09008KT 8000 4000E -SHRA FEW003 BKN012 FEW015TCU BKN030 26/25 Q1013 NOSIG RMK TCU E-SE A2992
Conditions at: RCSS (SUNGSHAN/TAIPEI , TW) observed 0027 UTC 20 September 2020
Temperature: 26.0°C (79°F)
Dewpoint: 25.0°C (77°F) [RH = 94%]
Pressure (altimeter): 29.91 inches Hg (1013.0 mb)
Winds: from the E (90 degrees) at 9 MPH (8 knots; 4.1 m/s)
Visibility: 5 miles ( 8 km)
Ceiling: 1200 feet AGL
Clouds: few clouds at 300 feet AGL
broken clouds at 1200 feet AGL
few clouds at 1500 feet AGL
broken clouds at 3000 feet AGL
Weather: -SHRA  (light rain showers)

METAR text: RCSS 200021Z 10007KT 7000 -SHRA FEW003 SCT012 FEW015CB BKN030 27/25 Q1012 RETS NOSIG RMK CB E-SE A2991
Conditions at: RCSS (SUNGSHAN/TAIPEI , TW) observed 0021 UTC 20 September 2020
Temperature: 27.0°C (81°F)
Dewpoint: 25.0°C (77°F) [RH = 89%]
Pressure (altimeter): 29.88 inches Hg (1012.0 mb)
Winds: from the E (100 degrees) at 8 MPH (7 knots; 3.6 m/s)
Visibility: 4 miles ( 7 km)
Ceiling: 3000 feet AGL
Clouds: few clouds at 300 feet AGL
scattered clouds at 1200 feet AGL
few clouds at 1500 feet AGL
broken clouds at 3000 feet AGL
Weather: -SHRA  (light rain showers)

METAR text: RCSS 200011Z 09006KT 6000 VCTS -SHRA FEW003 BKN012 FEW015CB BKN025 27/25 Q1012 NOSIG RMK TS NE-E MOV SE A2991
Conditions at: RCSS (SUNGSHAN/TAIPEI , TW) observed 0011 UTC 20 September 2020
Temperature: 27.0°C (81°F)
Dewpoint: 25.0°C (77°F) [RH = 89%]
Pressure (altimeter): 29.88 inches Hg (1012.0 mb)
Winds: from the E (90 degrees) at 7 MPH (6 knots; 3.1 m/s)
Visibility: 4 miles ( 6 km)
Ceiling: 1200 feet AGL
Clouds: few clouds at 300 feet AGL
broken clouds at 1200 feet AGL
few clouds at 1500 feet AGL
broken clouds at 2500 feet AGL
Weather: VCTS -SHRA  (thunderstorm in vicinity, light rain showers)

METAR text: RCSS 200000Z 08005KT 9000 VCTS -SHRA FEW005 SCT012 FEW015CB BKN025 27/25 Q1012 NOSIG RMK TS NE-E MOV SE A2991 RA AMT 2.0MM
Conditions at: RCSS (SUNGSHAN/TAIPEI , TW) observed 0000 UTC 20 September 2020
Temperature: 27.0°C (81°F)
Dewpoint: 25.0°C (77°F) [RH = 89%]
Pressure (altimeter): 29.88 inches Hg (1012.0 mb)
Winds: from the E (80 degrees) at 6 MPH (5 knots; 2.6 m/s)
Visibility: 6 miles ( 9 km)
Ceiling: 2500 feet AGL
Clouds: few clouds at 500 feet AGL
scattered clouds at 1200 feet AGL
few clouds at 1500 feet AGL
broken clouds at 2500 feet AGL
Weather: VCTS -SHRA  (thunderstorm in vicinity, light rain showers)

METAR text: RCSS 192347Z 10005KT 7000 -TSRA FEW005 SCT012 FEW015CB BKN025 27/25 Q1012 NOSIG RMK TS NE-E MOV SE A2991
Conditions at: RCSS (SUNGSHAN/TAIPEI , TW) observed 2347 UTC 19 September 2020
Temperature: 27.0°C (81°F)
Dewpoint: 25.0°C (77°F) [RH = 89%]
Pressure (altimeter): 29.88 inches Hg (1012.0 mb)
Winds: from the E (100 degrees) at 6 MPH (5 knots; 2.6 m/s)
Visibility: 4 miles ( 7 km)
Ceiling: 2500 feet AGL
Clouds: few clouds at 500 feet AGL
scattered clouds at 1200 feet AGL
few clouds at 1500 feet AGL
broken clouds at 2500 feet AGL
Weather: -TSRA  (light rain associated with thunderstorm(s))

METAR text: RCSS 192330Z 11006KT 8000 4000E VCTS -SHRA FEW003 SCT012 FEW015CB BKN025 27/25 Q1012 NOSIG RMK TS NE-E MOV SE A2991
Conditions at: RCSS (SUNGSHAN/TAIPEI , TW) observed 2330 UTC 19 September 2020
Temperature: 27.0°C (81°F)
Dewpoint: 25.0°C (77°F) [RH = 89%]
Pressure (altimeter): 29.88 inches Hg (1012.0 mb)
Winds: from the ESE (110 degrees) at 7 MPH (6 knots; 3.1 m/s)
Visibility: 5 miles ( 8 km)
Ceiling: 2500 feet AGL
Clouds: few clouds at 300 feet AGL
scattered clouds at 1200 feet AGL
few clouds at 1500 feet AGL
broken clouds at 2500 feet AGL
Weather: VCTS -SHRA  (thunderstorm in vicinity, light rain showers)

METAR text: RCSS 192321Z 09006KT 4000 VCTS -SHRA FEW003 BKN012 FEW015CB BKN040 27/25 Q1012 NOSIG RMK TS NE-E MOV SE A2990
Conditions at: RCSS (SUNGSHAN/TAIPEI , TW) observed 2321 UTC 19 September 2020
Temperature: 27.0°C (81°F)
Dewpoint: 25.0°C (77°F) [RH = 89%]
Pressure (altimeter): 29.88 inches Hg (1012.0 mb)
Winds: from the E (90 degrees) at 7 MPH (6 knots; 3.1 m/s)
Visibility: 2.49 miles (4.01 km)
Ceiling: 1200 feet AGL
Clouds: few clouds at 300 feet AGL
broken clouds at 1200 feet AGL
few clouds at 1500 feet AGL
broken clouds at 4000 feet AGL
Weather: VCTS -SHRA  (thunderstorm in vicinity, light rain showers)

METAR text: RCSS 192305Z 09007KT 4000 VCTS -SHRA FEW006 FEW010CB BKN015 BKN040 27/25 Q1012 NOSIG RMK TS NE-E MOV SE A2989
Conditions at: RCSS (SUNGSHAN/TAIPEI , TW) observed 2305 UTC 19 September 2020
Temperature: 27.0°C (81°F)
Dewpoint: 25.0°C (77°F) [RH = 89%]
Pressure (altimeter): 29.88 inches Hg (1012.0 mb)
Winds: from the E (90 degrees) at 8 MPH (7 knots; 3.6 m/s)
Visibility: 2.49 miles (4.01 km)
Ceiling: 1500 feet AGL
Clouds: few clouds at 600 feet AGL
few clouds at 1000 feet AGL
broken clouds at 1500 feet AGL
broken clouds at 4000 feet AGL
Weather: VCTS -SHRA  (thunderstorm in vicinity, light rain showers)

METAR text: RCSS 192300Z 08005KT 7000 3500E VCTS -SHRA FEW006 FEW010CB BKN015 BKN040 27/25 Q1012 NOSIG RMK TS NE-E MOV SE A2989 RA AMT 1.8MM
Conditions at: RCSS (SUNGSHAN/TAIPEI , TW) observed 2300 UTC 19 September 2020
Temperature: 27.0°C (81°F)
Dewpoint: 25.0°C (77°F) [RH = 89%]
Pressure (altimeter): 29.88 inches Hg (1012.0 mb)
Winds: from the E (80 degrees) at 6 MPH (5 knots; 2.6 m/s)
Visibility: 4 miles ( 7 km)
Ceiling: 1500 feet AGL
Clouds: few clouds at 600 feet AGL
few clouds at 1000 feet AGL
broken clouds at 1500 feet AGL
broken clouds at 4000 feet AGL
Weather: VCTS -SHRA  (thunderstorm in vicinity, light rain showers)

METAR text: RCSS 192242Z VRB02KT 5000 VCTS -SHRA FEW006 FEW010CB BKN015 BKN040 28/25 Q1012 NOSIG RMK TS NE-E AND W MOV SE A2989
Conditions at: RCSS (SUNGSHAN/TAIPEI , TW) observed 2242 UTC 19 September 2020
Temperature: 28.0°C (82°F)
Dewpoint: 25.0°C (77°F) [RH = 84%]
Pressure (altimeter): 29.88 inches Hg (1012.0 mb)
Winds: variable direction winds at 2 MPH (2 knots; 1.0 m/s)
Visibility: 3 miles ( 5 km)
Ceiling: 1500 feet AGL
Clouds: few clouds at 600 feet AGL
few clouds at 1000 feet AGL
broken clouds at 1500 feet AGL
broken clouds at 4000 feet AGL
Weather: VCTS -SHRA  (thunderstorm in vicinity, light rain showers)

METAR text: RCSS 192230Z 18004KT 120V220 9999 VCTS -SHRA FEW010 FEW012CB BKN016 BKN045 28/25 Q1011 NOSIG RMK TS NE AND W MOV SE A2988
Conditions at: RCSS (SUNGSHAN/TAIPEI , TW) observed 2230 UTC 19 September 2020
Temperature: 28.0°C (82°F)
Dewpoint: 25.0°C (77°F) [RH = 84%]
Pressure (altimeter): 29.85 inches Hg (1011.0 mb)
Winds: from the S (180 degrees) at 5 MPH (4 knots; 2.1 m/s)
Visibility: 6 or more miles (10+ km)
Ceiling: 1600 feet AGL
Clouds: few clouds at 1000 feet AGL
few clouds at 1200 feet AGL
broken clouds at 1600 feet AGL
broken clouds at 4500 feet AGL
Weather: VCTS -SHRA  (thunderstorm in vicinity, light rain showers)

METAR text: RCSS 192200Z 24005KT 210V270 9999 VCTS -SHRA FEW010 FEW012CB BKN016 BKN045 28/25 Q1011 NOSIG RMK TS NW-N MOV SE A2987
Conditions at: RCSS (SUNGSHAN/TAIPEI , TW) observed 2200 UTC 19 September 2020
Temperature: 28.0°C (82°F)
Dewpoint: 25.0°C (77°F) [RH = 84%]
Pressure (altimeter): 29.85 inches Hg (1011.0 mb)
Winds: from the WSW (240 degrees) at 6 MPH (5 knots; 2.6 m/s)
Visibility: 6 or more miles (10+ km)
Ceiling: 1600 feet AGL
Clouds: few clouds at 1000 feet AGL
few clouds at 1200 feet AGL
broken clouds at 1600 feet AGL
broken clouds at 4500 feet AGL
Weather: VCTS -SHRA  (thunderstorm in vicinity, light rain showers)

METAR text: RCSS 192153Z 25006KT 210V270 9999 VCTS -SHRA FEW012 FEW015CB BKN018 BKN050 28/24 Q1011 NOSIG RMK TS NW-N MOV SE A2987
Conditions at: RCSS (SUNGSHAN/TAIPEI , TW) observed 2153 UTC 19 September 2020
Temperature: 28.0°C (82°F)
Dewpoint: 24.0°C (75°F) [RH = 79%]
Pressure (altimeter): 29.85 inches Hg (1011.0 mb)
Winds: from the WSW (250 degrees) at 7 MPH (6 knots; 3.1 m/s)
Visibility: 6 or more miles (10+ km)
Ceiling: 1800 feet AGL
Clouds: few clouds at 1200 feet AGL
few clouds at 1500 feet AGL
broken clouds at 1800 feet AGL
broken clouds at 5000 feet AGL
Weather: VCTS -SHRA  (thunderstorm in vicinity, light rain showers)

METAR text: RCSS 192151Z 25006KT 220V280 9999 -SHRA FEW012 FEW015CB BKN018 BKN050 28/25 Q1011 NOSIG RMK CB NW-N A2987
Conditions at: RCSS (SUNGSHAN/TAIPEI , TW) observed 2151 UTC 19 September 2020
Temperature: 28.0°C (82°F)
Dewpoint: 25.0°C (77°F) [RH = 84%]
Pressure (altimeter): 29.85 inches Hg (1011.0 mb)
Winds: from the WSW (250 degrees) at 7 MPH (6 knots; 3.1 m/s)
Visibility: 6 or more miles (10+ km)
Ceiling: 1800 feet AGL
Clouds: few clouds at 1200 feet AGL
few clouds at 1500 feet AGL
broken clouds at 1800 feet AGL
broken clouds at 5000 feet AGL
Weather: -SHRA  (light rain showers)

METAR text: RCSS 192133Z 27006KT 9999 VCSH FEW012 FEW015CB BKN022 BKN050 28/25 Q1011 RETS NOSIG RMK CB NW A2987
Conditions at: RCSS (SUNGSHAN/TAIPEI , TW) observed 2133 UTC 19 September 2020
Temperature: 28.0°C (82°F)
Dewpoint: 25.0°C (77°F) [RH = 84%]
Pressure (altimeter): 29.85 inches Hg (1011.0 mb)
Winds: from the W (270 degrees) at 7 MPH (6 knots; 3.1 m/s)
Visibility: 6 or more miles (10+ km)
Ceiling: 2200 feet AGL
Clouds: few clouds at 1200 feet AGL
few clouds at 1500 feet AGL
broken clouds at 2200 feet AGL
broken clouds at 5000 feet AGL
Weather: VCSH  (showers in vicinity)

METAR text: RCSS 192100Z VRB02KT 9999 VCTS VCSH FEW012 FEW015CB BKN020 BKN045 28/25 Q1011 NOSIG RMK TS W-NW MOV SE A2988
Conditions at: RCSS (SUNGSHAN/TAIPEI , TW) observed 2100 UTC 19 September 2020
Temperature: 28.0°C (82°F)
Dewpoint: 25.0°C (77°F) [RH = 84%]
Pressure (altimeter): 29.85 inches Hg (1011.0 mb)
Winds: variable direction winds at 2 MPH (2 knots; 1.0 m/s)
Visibility: 6 or more miles (10+ km)
Ceiling: 2000 feet AGL
Clouds: few clouds at 1200 feet AGL
few clouds at 1500 feet AGL
broken clouds at 2000 feet AGL
broken clouds at 4500 feet AGL
Weather: VCTS VCSH  (thunderstorm in vicinity, showers in vicinity)

METAR text: RCSS 192000Z 22003KT 190V250 9999 VCTS VCSH FEW012 FEW015CB BKN020 BKN050 28/24 Q1011 NOSIG RMK TS W-NW MOV SE A2987
Conditions at: RCSS (SUNGSHAN/TAIPEI , TW) observed 2000 UTC 19 September 2020
Temperature: 28.0°C (82°F)
Dewpoint: 24.0°C (75°F) [RH = 79%]
Pressure (altimeter): 29.85 inches Hg (1011.0 mb)
Winds: from the SW (220 degrees) at 3 MPH (3 knots; 1.5 m/s)
Visibility: 6 or more miles (10+ km)
Ceiling: 2000 feet AGL
Clouds: few clouds at 1200 feet AGL
few clouds at 1500 feet AGL
broken clouds at 2000 feet AGL
broken clouds at 5000 feet AGL
Weather: VCTS VCSH  (thunderstorm in vicinity, showers in vicinity)

METAR text: RCSS 191930Z 20004KT 170V230 9999 VCTS VCSH FEW012 FEW015CB BKN020 BKN050 28/25 Q1011 NOSIG RMK TS SW-W MOV SE A2988
Conditions at: RCSS (SUNGSHAN/TAIPEI , TW) observed 1930 UTC 19 September 2020
Temperature: 28.0°C (82°F)
Dewpoint: 25.0°C (77°F) [RH = 84%]
Pressure (altimeter): 29.85 inches Hg (1011.0 mb)
Winds: from the SSW (200 degrees) at 5 MPH (4 knots; 2.1 m/s)
Visibility: 6 or more miles (10+ km)
Ceiling: 2000 feet AGL
Clouds: few clouds at 1200 feet AGL
few clouds at 1500 feet AGL
broken clouds at 2000 feet AGL
broken clouds at 5000 feet AGL
Weather: VCTS VCSH  (thunderstorm in vicinity, showers in vicinity)

METAR text: RCSS 191900Z 08004KT 9999 FEW015 SCT030 29/25 Q1011 NOSIG RMK A2987
Conditions at: RCSS (SUNGSHAN/TAIPEI , TW) observed 1900 UTC 19 September 2020
Temperature: 29.0°C (84°F)
Dewpoint: 25.0°C (77°F) [RH = 79%]
Pressure (altimeter): 29.85 inches Hg (1011.0 mb)
Winds: from the E (80 degrees) at 5 MPH (4 knots; 2.1 m/s)
Visibility: 6 or more miles (10+ km)
Ceiling: at least 12,000 feet AGL
Clouds: few clouds at 1500 feet AGL
scattered clouds at 3000 feet AGL
Weather: no significant weather observed at this time

METAR text: RCSS 191800Z 12003KT 090V170 9999 FEW015 SCT030 28/25 Q1012 NOSIG RMK A2989
Conditions at: RCSS (SUNGSHAN/TAIPEI , TW) observed 1800 UTC 19 September 2020
Temperature: 28.0°C (82°F)
Dewpoint: 25.0°C (77°F) [RH = 84%]
Pressure (altimeter): 29.88 inches Hg (1012.0 mb)
Winds: from the ESE (120 degrees) at 3 MPH (3 knots; 1.5 m/s)
Visibility: 6 or more miles (10+ km)
Ceiling: at least 12,000 feet AGL
Clouds: few clouds at 1500 feet AGL
scattered clouds at 3000 feet AGL
Weather: no significant weather observed at this time

METAR text: RCSS 191700Z 10008KT 9999 FEW015 28/25 Q1012 NOSIG RMK A2989
Conditions at: RCSS (SUNGSHAN/TAIPEI , TW) observed 1700 UTC 19 September 2020
Temperature: 28.0°C (82°F)
Dewpoint: 25.0°C (77°F) [RH = 84%]
Pressure (altimeter): 29.88 inches Hg (1012.0 mb)
Winds: from the E (100 degrees) at 9 MPH (8 knots; 4.1 m/s)
Visibility: 6 or more miles (10+ km)
Ceiling: at least 12,000 feet AGL
Clouds: few clouds at 1500 feet AGL
Weather: no significant weather observed at this time

METAR text: RCSS 191600Z 35002KT 9999 FEW012 28/25 Q1012 NOSIG RMK A2989
Conditions at: RCSS (SUNGSHAN/TAIPEI , TW) observed 1600 UTC 19 September 2020
Temperature: 28.0°C (82°F)
Dewpoint: 25.0°C (77°F) [RH = 84%]
Pressure (altimeter): 29.88 inches Hg (1012.0 mb)
Winds: from the N (350 degrees) at 2 MPH (2 knots; 1.0 m/s)
Visibility: 6 or more miles (10+ km)
Ceiling: at least 12,000 feet AGL
Clouds: few clouds at 1200 feet AGL
Weather: no significant weather observed at this time

METAR text: RCSS 191530Z VRB02KT 9999 FEW015 28/25 Q1012 NOSIG RMK A2989
Conditions at: RCSS (SUNGSHAN/TAIPEI , TW) observed 1530 UTC 19 September 2020
Temperature: 28.0°C (82°F)
Dewpoint: 25.0°C (77°F) [RH = 84%]
Pressure (altimeter): 29.88 inches Hg (1012.0 mb)
Winds: variable direction winds at 2 MPH (2 knots; 1.0 m/s)
Visibility: 6 or more miles (10+ km)
Ceiling: at least 12,000 feet AGL
Clouds: few clouds at 1500 feet AGL
Weather: no significant weather observed at this time

METAR text: RCSS 191500Z 10004KT 9999 FEW015 27/25 Q1012 NOSIG RMK A2989
Conditions at: RCSS (SUNGSHAN/TAIPEI , TW) observed 1500 UTC 19 September 2020
Temperature: 27.0°C (81°F)
Dewpoint: 25.0°C (77°F) [RH = 89%]
Pressure (altimeter): 29.88 inches Hg (1012.0 mb)
Winds: from the E (100 degrees) at 5 MPH (4 knots; 2.1 m/s)
Visibility: 6 or more miles (10+ km)
Ceiling: at least 12,000 feet AGL
Clouds: few clouds at 1500 feet AGL
Weather: no significant weather observed at this time

METAR text: RCSS 191430Z 09004KT 9999 FEW015 28/25 Q1012 NOSIG RMK A2990
Conditions at: RCSS (SUNGSHAN/TAIPEI , TW) observed 1430 UTC 19 September 2020
Temperature: 28.0°C (82°F)
Dewpoint: 25.0°C (77°F) [RH = 84%]
Pressure (altimeter): 29.88 inches Hg (1012.0 mb)
Winds: from the E (90 degrees) at 5 MPH (4 knots; 2.1 m/s)
Visibility: 6 or more miles (10+ km)
Ceiling: at least 12,000 feet AGL
Clouds: few clouds at 1500 feet AGL
Weather: no significant weather observed at this time

METAR text: RCSS 191400Z 11004KT 9999 FEW015 28/25 Q1012 NOSIG RMK A2991
Conditions at: RCSS (SUNGSHAN/TAIPEI , TW) observed 1400 UTC 19 September 2020
Temperature: 28.0°C (82°F)
Dewpoint: 25.0°C (77°F) [RH = 84%]
Pressure (altimeter): 29.88 inches Hg (1012.0 mb)
Winds: from the ESE (110 degrees) at 5 MPH (4 knots; 2.1 m/s)
Visibility: 6 or more miles (10+ km)
Ceiling: at least 12,000 feet AGL
Clouds: few clouds at 1500 feet AGL
Weather: no significant weather observed at this time

METAR text: RCSS 191330Z 13003KT 9999 FEW015 SCT200 29/25 Q1012 NOSIG RMK A2991
Conditions at: RCSS (SUNGSHAN/TAIPEI , TW) observed 1330 UTC 19 September 2020
Temperature: 29.0°C (84°F)
Dewpoint: 25.0°C (77°F) [RH = 79%]
Pressure (altimeter): 29.88 inches Hg (1012.0 mb)
Winds: from the SE (130 degrees) at 3 MPH (3 knots; 1.5 m/s)
Visibility: 6 or more miles (10+ km)
Ceiling: at least 12,000 feet AGL
Clouds: few clouds at 1500 feet AGL
scattered clouds at 20000 feet AGL
Weather: no significant weather observed at this time

METAR text: RCSS 191300Z 08003KT 9999 FEW010 SCT200 29/25 Q1013 NOSIG RMK A2992
Conditions at: RCSS (SUNGSHAN/TAIPEI , TW) observed 1300 UTC 19 September 2020
Temperature: 29.0°C (84°F)
Dewpoint: 25.0°C (77°F) [RH = 79%]
Pressure (altimeter): 29.91 inches Hg (1013.0 mb)
Winds: from the E (80 degrees) at 3 MPH (3 knots; 1.5 m/s)
Visibility: 6 or more miles (10+ km)
Ceiling: at least 12,000 feet AGL
Clouds: few clouds at 1000 feet AGL
scattered clouds at 20000 feet AGL
Weather: no significant weather observed at this time

METAR text: RCSS 191230Z 10003KT 9999 FEW010 SCT200 29/25 Q1013 NOSIG RMK A2993
Conditions at: RCSS (SUNGSHAN/TAIPEI , TW) observed 1230 UTC 19 September 2020
Temperature: 29.0°C (84°F)
Dewpoint: 25.0°C (77°F) [RH = 79%]
Pressure (altimeter): 29.91 inches Hg (1013.0 mb)
Winds: from the E (100 degrees) at 3 MPH (3 knots; 1.5 m/s)
Visibility: 6 or more miles (10+ km)
Ceiling: at least 12,000 feet AGL
Clouds: few clouds at 1000 feet AGL
scattered clouds at 20000 feet AGL
Weather: no significant weather observed at this time

METAR text: RCSS 191200Z 08005KT 9999 FEW010 SCT200 29/25 Q1013 NOSIG RMK A2993
Conditions at: RCSS (SUNGSHAN/TAIPEI , TW) observed 1200 UTC 19 September 2020
Temperature: 29.0°C (84°F)
Dewpoint: 25.0°C (77°F) [RH = 79%]
Pressure (altimeter): 29.91 inches Hg (1013.0 mb)
Winds: from the E (80 degrees) at 6 MPH (5 knots; 2.6 m/s)
Visibility: 6 or more miles (10+ km)
Ceiling: at least 12,000 feet AGL
Clouds: few clouds at 1000 feet AGL
scattered clouds at 20000 feet AGL
Weather: no significant weather observed at this time

METAR text: RCSS 191130Z 09007KT 9999 FEW012 SCT035 30/25 Q1012 NOSIG RMK A2991
Conditions at: RCSS (SUNGSHAN/TAIPEI , TW) observed 1130 UTC 19 September 2020
Temperature: 30.0°C (86°F)
Dewpoint: 25.0°C (77°F) [RH = 75%]
Pressure (altimeter): 29.88 inches Hg (1012.0 mb)
Winds: from the E (90 degrees) at 8 MPH (7 knots; 3.6 m/s)
Visibility: 6 or more miles (10+ km)
Ceiling: at least 12,000 feet AGL
Clouds: few clouds at 1200 feet AGL
scattered clouds at 3500 feet AGL
Weather: no significant weather observed at this time

METAR text: RCSS 191100Z 12007KT 9999 FEW020 SCT250 30/26 Q1012 NOSIG RMK A2990
Conditions at: RCSS (SUNGSHAN/TAIPEI , TW) observed 1100 UTC 19 September 2020
Temperature: 30.0°C (86°F)
Dewpoint: 26.0°C (79°F) [RH = 79%]
Pressure (altimeter): 29.88 inches Hg (1012.0 mb)
Winds: from the ESE (120 degrees) at 8 MPH (7 knots; 3.6 m/s)
Visibility: 6 or more miles (10+ km)
Ceiling: at least 12,000 feet AGL
Clouds: few clouds at 2000 feet AGL
scattered clouds at 25000 feet AGL
Weather: no significant weather observed at this time

METAR text: RCSS 191030Z 11009KT 9999 FEW020 SCT035 BKN250 30/27 Q1012 RETS NOSIG RMK A2989
Conditions at: RCSS (SUNGSHAN/TAIPEI , TW) observed 1030 UTC 19 September 2020
Temperature: 30.0°C (86°F)
Dewpoint: 27.0°C (81°F) [RH = 84%]
Pressure (altimeter): 29.88 inches Hg (1012.0 mb)
Winds: from the ESE (110 degrees) at 10 MPH (9 knots; 4.6 m/s)
Visibility: 6 or more miles (10+ km)
Ceiling: 25000 feet AGL
Clouds: few clouds at 2000 feet AGL
scattered clouds at 3500 feet AGL
broken clouds at 25000 feet AGL
Weather: no significant weather observed at this time

METAR text: RCSS 191000Z 10009KT 9999 VCTS FEW020 FEW022CB SCT035 BKN250 30/27 Q1012 NOSIG RMK TS SE MOV S A2989
Conditions at: RCSS (SUNGSHAN/TAIPEI , TW) observed 1000 UTC 19 September 2020
Temperature: 30.0°C (86°F)
Dewpoint: 27.0°C (81°F) [RH = 84%]
Pressure (altimeter): 29.88 inches Hg (1012.0 mb)
Winds: from the E (100 degrees) at 10 MPH (9 knots; 4.6 m/s)
Visibility: 6 or more miles (10+ km)
Ceiling: 25000 feet AGL
Clouds: few clouds at 2000 feet AGL
few clouds at 2200 feet AGL
scattered clouds at 3500 feet AGL
broken clouds at 25000 feet AGL
Weather: VCTS  (thunderstorm in vicinity)

METAR text: RCSS 190930Z 09007KT 070V150 9999 VCTS FEW020 FEW022CB SCT035 BKN250 31/26 Q1012 NOSIG RMK TS SE MOV SE A2989
Conditions at: RCSS (SUNGSHAN/TAIPEI , TW) observed 0930 UTC 19 September 2020
Temperature: 31.0°C (88°F)
Dewpoint: 26.0°C (79°F) [RH = 75%]
Pressure (altimeter): 29.88 inches Hg (1012.0 mb)
Winds: from the E (90 degrees) at 8 MPH (7 knots; 3.6 m/s)
Visibility: 6 or more miles (10+ km)
Ceiling: 25000 feet AGL
Clouds: few clouds at 2000 feet AGL
few clouds at 2200 feet AGL
scattered clouds at 3500 feet AGL
broken clouds at 25000 feet AGL
Weather: VCTS  (thunderstorm in vicinity)

METAR text: RCSS 190900Z 29008KT 9999 VCTS FEW015CB FEW018 SCT160 BKN250 31/27 Q1011 NOSIG RMK 29008KT/R10 TS E AND S MOV E A2988
Conditions at: RCSS (SUNGSHAN/TAIPEI , TW) observed 0900 UTC 19 September 2020
Temperature: 31.0°C (88°F)
Dewpoint: 27.0°C (81°F) [RH = 79%]
Pressure (altimeter): 29.85 inches Hg (1011.0 mb)
Winds: from the WNW (290 degrees) at 9 MPH (8 knots; 4.1 m/s)
Visibility: 6 or more miles (10+ km)
Ceiling: 25000 feet AGL
Clouds: few clouds at 1500 feet AGL
few clouds at 1800 feet AGL
scattered clouds at 16000 feet AGL
broken clouds at 25000 feet AGL
Weather: VCTS  (thunderstorm in vicinity)

METAR text: RCSS 190830Z 29013KT 9999 VCTS FEW020CB FEW025 SCT150 BKN250 32/26 Q1011 NOSIG RMK 27011KT/R10 TS E AND S MOV NE A2988
Conditions at: RCSS (SUNGSHAN/TAIPEI , TW) observed 0830 UTC 19 September 2020
Temperature: 32.0°C (90°F)
Dewpoint: 26.0°C (79°F) [RH = 71%]
Pressure (altimeter): 29.85 inches Hg (1011.0 mb)
Winds: from the WNW (290 degrees) at 15 MPH (13 knots; 6.7 m/s)
Visibility: 6 or more miles (10+ km)
Ceiling: 25000 feet AGL
Clouds: few clouds at 2000 feet AGL
few clouds at 2500 feet AGL
scattered clouds at 15000 feet AGL
broken clouds at 25000 feet AGL
Weather: VCTS  (thunderstorm in vicinity)

METAR text: RCSS 190819Z 29011KT 9999 VCTS FEW020CB FEW025 SCT150 BKN220 32/26 Q1011 NOSIG RMK 28011KT/R10 TS E AND S MOV NE A2988
Conditions at: RCSS (SUNGSHAN/TAIPEI , TW) observed 0819 UTC 19 September 2020
Temperature: 32.0°C (90°F)
Dewpoint: 26.0°C (79°F) [RH = 71%]
Pressure (altimeter): 29.85 inches Hg (1011.0 mb)
Winds: from the WNW (290 degrees) at 13 MPH (11 knots; 5.7 m/s)
Visibility: 6 or more miles (10+ km)
Ceiling: 22000 feet AGL
Clouds: few clouds at 2000 feet AGL
few clouds at 2500 feet AGL
scattered clouds at 15000 feet AGL
broken clouds at 22000 feet AGL
Weather: VCTS  (thunderstorm in vicinity)

METAR text: RCSS 190800Z 29009KT 9999 FEW025 SCT250 32/26 Q1011 NOSIG RMK 29007KT/R10 A2988
Conditions at: RCSS (SUNGSHAN/TAIPEI , TW) observed 0800 UTC 19 September 2020
Temperature: 32.0°C (90°F)
Dewpoint: 26.0°C (79°F) [RH = 71%]
Pressure (altimeter): 29.85 inches Hg (1011.0 mb)
Winds: from the WNW (290 degrees) at 10 MPH (9 knots; 4.6 m/s)
Visibility: 6 or more miles (10+ km)
Ceiling: at least 12,000 feet AGL
Clouds: few clouds at 2500 feet AGL
scattered clouds at 25000 feet AGL
Weather: no significant weather observed at this time

METAR text: RCSS 190730Z 30009KT 270V330 9999 FEW025 SCT250 34/26 Q1011 NOSIG RMK 28008KT/R10 A2988
Conditions at: RCSS (SUNGSHAN/TAIPEI , TW) observed 0730 UTC 19 September 2020
Temperature: 34.0°C (93°F)
Dewpoint: 26.0°C (79°F) [RH = 63%]
Pressure (altimeter): 29.85 inches Hg (1011.0 mb)
Winds: from the WNW (300 degrees) at 10 MPH (9 knots; 4.6 m/s)
Visibility: 6 or more miles (10+ km)
Ceiling: at least 12,000 feet AGL
Clouds: few clouds at 2500 feet AGL
scattered clouds at 25000 feet AGL
Weather: no significant weather observed at this time

METAR text: RCSS 190700Z 29009KT 260V320 9999 FEW025 SCT250 33/27 Q1011 NOSIG RMK 29008KT/R10 A2987
Conditions at: RCSS (SUNGSHAN/TAIPEI , TW) observed 0700 UTC 19 September 2020
Temperature: 33.0°C (91°F)
Dewpoint: 27.0°C (81°F) [RH = 71%]
Pressure (altimeter): 29.85 inches Hg (1011.0 mb)
Winds: from the WNW (290 degrees) at 10 MPH (9 knots; 4.6 m/s)
Visibility: 6 or more miles (10+ km)
Ceiling: at least 12,000 feet AGL
Clouds: few clouds at 2500 feet AGL
scattered clouds at 25000 feet AGL
Weather: no significant weather observed at this time

METAR text: RCSS 190630Z 31008KT 9999 FEW025 SCT250 33/27 Q1011 NOSIG RMK 30007KT/R10 A2986
Conditions at: RCSS (SUNGSHAN/TAIPEI , TW) observed 0630 UTC 19 September 2020
Temperature: 33.0°C (91°F)
Dewpoint: 27.0°C (81°F) [RH = 71%]
Pressure (altimeter): 29.85 inches Hg (1011.0 mb)
Winds: from the NW (310 degrees) at 9 MPH (8 knots; 4.1 m/s)
Visibility: 6 or more miles (10+ km)
Ceiling: at least 12,000 feet AGL
Clouds: few clouds at 2500 feet AGL
scattered clouds at 25000 feet AGL
Weather: no significant weather observed at this time

METAR text: RCSS 190600Z 30011KT 9999 FEW025 SCT250 33/26 Q1011 NOSIG RMK 30008KT/R10 A2987
Conditions at: RCSS (SUNGSHAN/TAIPEI , TW) observed 0600 UTC 19 September 2020
Temperature: 33.0°C (91°F)
Dewpoint: 26.0°C (79°F) [RH = 67%]
Pressure (altimeter): 29.85 inches Hg (1011.0 mb)
Winds: from the WNW (300 degrees) at 13 MPH (11 knots; 5.7 m/s)
Visibility: 6 or more miles (10+ km)
Ceiling: at least 12,000 feet AGL
Clouds: few clouds at 2500 feet AGL
scattered clouds at 25000 feet AGL
Weather: no significant weather observed at this time

METAR text: RCSS 190530Z 31009KT 9999 FEW025 SCT220 34/26 Q1011 NOSIG RMK 30009KT/R10 A2988
Conditions at: RCSS (SUNGSHAN/TAIPEI , TW) observed 0530 UTC 19 September 2020
Temperature: 34.0°C (93°F)
Dewpoint: 26.0°C (79°F) [RH = 63%]
Pressure (altimeter): 29.85 inches Hg (1011.0 mb)
Winds: from the NW (310 degrees) at 10 MPH (9 knots; 4.6 m/s)
Visibility: 6 or more miles (10+ km)
Ceiling: at least 12,000 feet AGL
Clouds: few clouds at 2500 feet AGL
scattered clouds at 22000 feet AGL
Weather: no significant weather observed at this time

METAR text: RCSS 190500Z 31010KT 280V340 9999 FEW020 BKN035 BKN250 33/27 Q1011 NOSIG RMK 31006KT/R10 A2988
Conditions at: RCSS (SUNGSHAN/TAIPEI , TW) observed 0500 UTC 19 September 2020
Temperature: 33.0°C (91°F)
Dewpoint: 27.0°C (81°F) [RH = 71%]
Pressure (altimeter): 29.85 inches Hg (1011.0 mb)
Winds: from the NW (310 degrees) at 12 MPH (10 knots; 5.1 m/s)
Visibility: 6 or more miles (10+ km)
Ceiling: 3500 feet AGL
Clouds: few clouds at 2000 feet AGL
broken clouds at 3500 feet AGL
broken clouds at 25000 feet AGL
Weather: no significant weather observed at this time

METAR text: RCSS 190430Z 30006KT 280V340 9999 VCSH FEW015 BKN035 BKN060 34/27 Q1012 NOSIG RMK 31006KT/R10 A2989
Conditions at: RCSS (SUNGSHAN/TAIPEI , TW) observed 0430 UTC 19 September 2020
Temperature: 34.0°C (93°F)
Dewpoint: 27.0°C (81°F) [RH = 67%]
Pressure (altimeter): 29.88 inches Hg (1012.0 mb)
Winds: from the WNW (300 degrees) at 7 MPH (6 knots; 3.1 m/s)
Visibility: 6 or more miles (10+ km)
Ceiling: 3500 feet AGL
Clouds: few clouds at 1500 feet AGL
broken clouds at 3500 feet AGL
broken clouds at 6000 feet AGL
Weather: VCSH  (showers in vicinity)

METAR text: RCSS 190400Z 32008KT 290V350 9999 VCSH FEW015 BKN035 BKN060 33/27 Q1012 NOSIG RMK 32006KT/R10 A2990
Conditions at: RCSS (SUNGSHAN/TAIPEI , TW) observed 0400 UTC 19 September 2020
Temperature: 33.0°C (91°F)
Dewpoint: 27.0°C (81°F) [RH = 71%]
Pressure (altimeter): 29.88 inches Hg (1012.0 mb)
Winds: from the NW (320 degrees) at 9 MPH (8 knots; 4.1 m/s)
Visibility: 6 or more miles (10+ km)
Ceiling: 3500 feet AGL
Clouds: few clouds at 1500 feet AGL
broken clouds at 3500 feet AGL
broken clouds at 6000 feet AGL
Weather: VCSH  (showers in vicinity)

METAR text: RCSS 190330Z 30007KT 240V350 9999 VCSH FEW015 BKN035 BKN050 34/28 Q1012 NOSIG RMK 28007KT/R10 A2991
Conditions at: RCSS (SUNGSHAN/TAIPEI , TW) observed 0330 UTC 19 September 2020
Temperature: 34.0°C (93°F)
Dewpoint: 28.0°C (82°F) [RH = 71%]
Pressure (altimeter): 29.88 inches Hg (1012.0 mb)
Winds: from the WNW (300 degrees) at 8 MPH (7 knots; 3.6 m/s)
Visibility: 6 or more miles (10+ km)
Ceiling: 3500 feet AGL
Clouds: few clouds at 1500 feet AGL
broken clouds at 3500 feet AGL
broken clouds at 5000 feet AGL
Weather: VCSH  (showers in vicinity)

METAR text: RCSS 190301Z 29011G22KT 9999 -SHRA FEW015 FEW020TCU SCT035 BKN250 34/27 Q1013 NOSIG RMK 29010KT/R10 TCU N A2992
Conditions at: RCSS (SUNGSHAN/TAIPEI , TW) observed 0301 UTC 19 September 2020
Temperature: 34.0°C (93°F)
Dewpoint: 27.0°C (81°F) [RH = 67%]
Pressure (altimeter): 29.91 inches Hg (1013.0 mb)
Winds: from the WNW (290 degrees) at 13 MPH (11 knots; 5.7 m/s)
gusting to 25 MPH (22 knots; 11.3 m/s)
Visibility: 6 or more miles (10+ km)
Ceiling: 25000 feet AGL
Clouds: few clouds at 1500 feet AGL
few clouds at 2000 feet AGL
scattered clouds at 3500 feet AGL
broken clouds at 25000 feet AGL
Weather: -SHRA  (light rain showers)

METAR text: RCSS 190300Z 26009G22KT 230V300 9999 FEW020 SCT035 BKN250 35/27 Q1013 NOSIG RMK 27010KT/R10 A2992
Conditions at: RCSS (SUNGSHAN/TAIPEI , TW) observed 0300 UTC 19 September 2020
Temperature: 35.0°C (95°F)
Dewpoint: 27.0°C (81°F) [RH = 63%]
Pressure (altimeter): 29.91 inches Hg (1013.0 mb)
Winds: from the W (260 degrees) at 10 MPH (9 knots; 4.6 m/s)
gusting to 25 MPH (22 knots; 11.3 m/s)
Visibility: 6 or more miles (10+ km)
Ceiling: 25000 feet AGL
Clouds: few clouds at 2000 feet AGL
scattered clouds at 3500 feet AGL
broken clouds at 25000 feet AGL
Weather: no significant weather observed at this time

METAR text: RCSS 190230Z 23009KT 9999 FEW020 SCT040 BKN250 34/27 Q1013 NOSIG RMK 25008KT/R10 A2993
Conditions at: RCSS (SUNGSHAN/TAIPEI , TW) observed 0230 UTC 19 September 2020
Temperature: 34.0°C (93°F)
Dewpoint: 27.0°C (81°F) [RH = 67%]
Pressure (altimeter): 29.91 inches Hg (1013.0 mb)
Winds: from the SW (230 degrees) at 10 MPH (9 knots; 4.6 m/s)
Visibility: 6 or more miles (10+ km)
Ceiling: 25000 feet AGL
Clouds: few clouds at 2000 feet AGL
scattered clouds at 4000 feet AGL
broken clouds at 25000 feet AGL
Weather: no significant weather observed at this time

METAR text: RCSS 190200Z 26010KT 9999 FEW020 SCT040 BKN250 34/27 Q1013 NOSIG RMK 24008KT/R10 A2994
Conditions at: RCSS (SUNGSHAN/TAIPEI , TW) observed 0200 UTC 19 September 2020
Temperature: 34.0°C (93°F)
Dewpoint: 27.0°C (81°F) [RH = 67%]
Pressure (altimeter): 29.91 inches Hg (1013.0 mb)
Winds: from the W (260 degrees) at 12 MPH (10 knots; 5.1 m/s)
Visibility: 6 or more miles (10+ km)
Ceiling: 25000 feet AGL
Clouds: few clouds at 2000 feet AGL
scattered clouds at 4000 feet AGL
broken clouds at 25000 feet AGL
Weather: no significant weather observed at this time

METAR text: RCSS 190130Z 26007KT 210V290 9999 FEW020 SCT045 BKN250 34/26 Q1013 NOSIG RMK A2994
Conditions at: RCSS (SUNGSHAN/TAIPEI , TW) observed 0130 UTC 19 September 2020
Temperature: 34.0°C (93°F)
Dewpoint: 26.0°C (79°F) [RH = 63%]
Pressure (altimeter): 29.91 inches Hg (1013.0 mb)
Winds: from the W (260 degrees) at 8 MPH (7 knots; 3.6 m/s)
Visibility: 6 or more miles (10+ km)
Ceiling: 25000 feet AGL
Clouds: few clouds at 2000 feet AGL
scattered clouds at 4500 feet AGL
broken clouds at 25000 feet AGL
Weather: no significant weather observed at this time

METAR text: RCSS 190100Z 24005KT 200V280 9999 FEW020 BKN220 34/27 Q1013 NOSIG RMK A2994
Conditions at: RCSS (SUNGSHAN/TAIPEI , TW) observed 0100 UTC 19 September 2020
Temperature: 34.0°C (93°F)
Dewpoint: 27.0°C (81°F) [RH = 67%]
Pressure (altimeter): 29.91 inches Hg (1013.0 mb)
Winds: from the WSW (240 degrees) at 6 MPH (5 knots; 2.6 m/s)
Visibility: 6 or more miles (10+ km)
Ceiling: 22000 feet AGL
Clouds: few clouds at 2000 feet AGL
broken clouds at 22000 feet AGL
Weather: no significant weather observed at this time

METAR text: RCSS 190030Z VRB04KT 9999 FEW020 BKN220 33/26 Q1013 NOSIG RMK A2994
Conditions at: RCSS (SUNGSHAN/TAIPEI , TW) observed 0030 UTC 19 September 2020
Temperature: 33.0°C (91°F)
Dewpoint: 26.0°C (79°F) [RH = 67%]
Pressure (altimeter): 29.91 inches Hg (1013.0 mb)
Winds: variable direction winds at 5 MPH (4 knots; 2.1 m/s)
Visibility: 6 or more miles (10+ km)
Ceiling: 22000 feet AGL
Clouds: few clouds at 2000 feet AGL
broken clouds at 22000 feet AGL
Weather: no significant weather observed at this time

METAR text: RCSS 190000Z 15003KT 120V190 9999 FEW020 SCT050 BKN220 32/26 Q1013 NOSIG RMK A2994
Conditions at: RCSS (SUNGSHAN/TAIPEI , TW) observed 0000 UTC 19 September 2020
Temperature: 32.0°C (90°F)
Dewpoint: 26.0°C (79°F) [RH = 71%]
Pressure (altimeter): 29.91 inches Hg (1013.0 mb)
Winds: from the SSE (150 degrees) at 3 MPH (3 knots; 1.5 m/s)
Visibility: 6 or more miles (10+ km)
Ceiling: 22000 feet AGL
Clouds: few clouds at 2000 feet AGL
scattered clouds at 5000 feet AGL
broken clouds at 22000 feet AGL
Weather: no significant weather observed at this time

METAR text: RCSS 182330Z 25004KT 190V290 9999 FEW020 BKN050 BKN220 30/25 Q1013 NOSIG RMK A2994
Conditions at: RCSS (SUNGSHAN/TAIPEI , TW) observed 2330 UTC 18 September 2020
Temperature: 30.0°C (86°F)
Dewpoint: 25.0°C (77°F) [RH = 75%]
Pressure (altimeter): 29.91 inches Hg (1013.0 mb)
Winds: from the WSW (250 degrees) at 5 MPH (4 knots; 2.1 m/s)
Visibility: 6 or more miles (10+ km)
Ceiling: 5000 feet AGL
Clouds: few clouds at 2000 feet AGL
broken clouds at 5000 feet AGL
broken clouds at 22000 feet AGL
Weather: no significant weather observed at this time

METAR text: RCSS 182300Z VRB01KT 9999 FEW015 SCT040 BKN220 30/25 Q1013 NOSIG RMK A2992
Conditions at: RCSS (SUNGSHAN/TAIPEI , TW) observed 2300 UTC 18 September 2020
Temperature: 30.0°C (86°F)
Dewpoint: 25.0°C (77°F) [RH = 75%]
Pressure (altimeter): 29.91 inches Hg (1013.0 mb)
Winds: variable direction winds at 1 MPH (1 knots; 0.5 m/s)
Visibility: 6 or more miles (10+ km)
Ceiling: 22000 feet AGL
Clouds: few clouds at 1500 feet AGL
scattered clouds at 4000 feet AGL
broken clouds at 22000 feet AGL
Weather: no significant weather observed at this time

METAR text: RCSS 182230Z VRB02KT 9999 FEW015 BKN050 BKN220 30/25 Q1012 NOSIG RMK A2991
Conditions at: RCSS (SUNGSHAN/TAIPEI , TW) observed 2230 UTC 18 September 2020
Temperature: 30.0°C (86°F)
Dewpoint: 25.0°C (77°F) [RH = 75%]
Pressure (altimeter): 29.88 inches Hg (1012.0 mb)
Winds: variable direction winds at 2 MPH (2 knots; 1.0 m/s)
Visibility: 6 or more miles (10+ km)
Ceiling: 5000 feet AGL
Clouds: few clouds at 1500 feet AGL
broken clouds at 5000 feet AGL
broken clouds at 22000 feet AGL
Weather: no significant weather observed at this time

METAR text: RCSS 182200Z 13003KT 9999 FEW015 BKN050 BKN220 29/25 Q1012 NOSIG RMK A2991
Conditions at: RCSS (SUNGSHAN/TAIPEI , TW) observed 2200 UTC 18 September 2020
Temperature: 29.0°C (84°F)
Dewpoint: 25.0°C (77°F) [RH = 79%]
Pressure (altimeter): 29.88 inches Hg (1012.0 mb)
Winds: from the SE (130 degrees) at 3 MPH (3 knots; 1.5 m/s)
Visibility: 6 or more miles (10+ km)
Ceiling: 5000 feet AGL
Clouds: few clouds at 1500 feet AGL
broken clouds at 5000 feet AGL
broken clouds at 22000 feet AGL
Weather: no significant weather observed at this time

METAR text: RCSS 182100Z 22004KT 9999 FEW015 BKN030 BKN050 29/25 Q1012 NOSIG RMK A2989
Conditions at: RCSS (SUNGSHAN/TAIPEI , TW) observed 2100 UTC 18 September 2020
Temperature: 29.0°C (84°F)
Dewpoint: 25.0°C (77°F) [RH = 79%]
Pressure (altimeter): 29.88 inches Hg (1012.0 mb)
Winds: from the SW (220 degrees) at 5 MPH (4 knots; 2.1 m/s)
Visibility: 6 or more miles (10+ km)
Ceiling: 3000 feet AGL
Clouds: few clouds at 1500 feet AGL
broken clouds at 3000 feet AGL
broken clouds at 5000 feet AGL
Weather: no significant weather observed at this time

METAR text: RCSS 182000Z 12003KT 9999 FEW015 BKN030 BKN060 29/26 Q1012 NOSIG RMK A2989
Conditions at: RCSS (SUNGSHAN/TAIPEI , TW) observed 2000 UTC 18 September 2020
Temperature: 29.0°C (84°F)
Dewpoint: 26.0°C (79°F) [RH = 84%]
Pressure (altimeter): 29.88 inches Hg (1012.0 mb)
Winds: from the ESE (120 degrees) at 3 MPH (3 knots; 1.5 m/s)
Visibility: 6 or more miles (10+ km)
Ceiling: 3000 feet AGL
Clouds: few clouds at 1500 feet AGL
broken clouds at 3000 feet AGL
broken clouds at 6000 feet AGL
Weather: no significant weather observed at this time

METAR text: RCSS 181900Z 12004KT 9999 FEW015 BKN030 BKN045 29/26 Q1012 NOSIG RMK A2990
Conditions at: RCSS (SUNGSHAN/TAIPEI , TW) observed 1900 UTC 18 September 2020
Temperature: 29.0°C (84°F)
Dewpoint: 26.0°C (79°F) [RH = 84%]
Pressure (altimeter): 29.88 inches Hg (1012.0 mb)
Winds: from the ESE (120 degrees) at 5 MPH (4 knots; 2.1 m/s)
Visibility: 6 or more miles (10+ km)
Ceiling: 3000 feet AGL
Clouds: few clouds at 1500 feet AGL
broken clouds at 3000 feet AGL
broken clouds at 4500 feet AGL
Weather: no significant weather observed at this time

METAR text: RCSS 181800Z 09006KT 9999 FEW015 BKN040 29/26 Q1012 NOSIG RMK A2990
Conditions at: RCSS (SUNGSHAN/TAIPEI , TW) observed 1800 UTC 18 September 2020
Temperature: 29.0°C (84°F)
Dewpoint: 26.0°C (79°F) [RH = 84%]
Pressure (altimeter): 29.88 inches Hg (1012.0 mb)
Winds: from the E (90 degrees) at 7 MPH (6 knots; 3.1 m/s)
Visibility: 6 or more miles (10+ km)
Ceiling: 4000 feet AGL
Clouds: few clouds at 1500 feet AGL
broken clouds at 4000 feet AGL
Weather: no significant weather observed at this time

METAR text: RCSS 181700Z 10007KT 9999 FEW015 SCT120 29/26 Q1012 NOSIG RMK A2991
Conditions at: RCSS (SUNGSHAN/TAIPEI , TW) observed 1700 UTC 18 September 2020
Temperature: 29.0°C (84°F)
Dewpoint: 26.0°C (79°F) [RH = 84%]
Pressure (altimeter): 29.88 inches Hg (1012.0 mb)
Winds: from the E (100 degrees) at 8 MPH (7 knots; 3.6 m/s)
Visibility: 6 or more miles (10+ km)
Ceiling: at least 12,000 feet AGL
Clouds: few clouds at 1500 feet AGL
scattered clouds at 12000 feet AGL
Weather: no significant weather observed at this time

METAR text: RCSS 181600Z 10008KT 9999 FEW015 29/25 Q1012 NOSIG RMK A2991
Conditions at: RCSS (SUNGSHAN/TAIPEI , TW) observed 1600 UTC 18 September 2020
Temperature: 29.0°C (84°F)
Dewpoint: 25.0°C (77°F) [RH = 79%]
Pressure (altimeter): 29.88 inches Hg (1012.0 mb)
Winds: from the E (100 degrees) at 9 MPH (8 knots; 4.1 m/s)
Visibility: 6 or more miles (10+ km)
Ceiling: at least 12,000 feet AGL
Clouds: few clouds at 1500 feet AGL
Weather: no significant weather observed at this time

METAR text: RCSS 181530Z 08009KT 9999 FEW012 SCT120 30/25 Q1012 NOSIG RMK A2991
Conditions at: RCSS (SUNGSHAN/TAIPEI , TW) observed 1530 UTC 18 September 2020
Temperature: 30.0°C (86°F)
Dewpoint: 25.0°C (77°F) [RH = 75%]
Pressure (altimeter): 29.88 inches Hg (1012.0 mb)
Winds: from the E (80 degrees) at 10 MPH (9 knots; 4.6 m/s)
Visibility: 6 or more miles (10+ km)
Ceiling: at least 12,000 feet AGL
Clouds: few clouds at 1200 feet AGL
scattered clouds at 12000 feet AGL
Weather: no significant weather observed at this time

METAR text: RCSS 181500Z 08009KT 9999 FEW012 30/25 Q1012 NOSIG RMK A2991
Conditions at: RCSS (SUNGSHAN/TAIPEI , TW) observed 1500 UTC 18 September 2020
Temperature: 30.0°C (86°F)
Dewpoint: 25.0°C (77°F) [RH = 75%]
Pressure (altimeter): 29.88 inches Hg (1012.0 mb)
Winds: from the E (80 degrees) at 10 MPH (9 knots; 4.6 m/s)
Visibility: 6 or more miles (10+ km)
Ceiling: at least 12,000 feet AGL
Clouds: few clouds at 1200 feet AGL
Weather: no significant weather observed at this time

METAR text: RCSS 181430Z 08009KT 9999 FEW012 30/26 Q1012 NOSIG RMK A2991
Conditions at: RCSS (SUNGSHAN/TAIPEI , TW) observed 1430 UTC 18 September 2020
Temperature: 30.0°C (86°F)
Dewpoint: 26.0°C (79°F) [RH = 79%]
Pressure (altimeter): 29.88 inches Hg (1012.0 mb)
Winds: from the E (80 degrees) at 10 MPH (9 knots; 4.6 m/s)
Visibility: 6 or more miles (10+ km)
Ceiling: at least 12,000 feet AGL
Clouds: few clouds at 1200 feet AGL
Weather: no significant weather observed at this time

METAR text: RCSS 181400Z 08009KT 9999 FEW010 29/26 Q1012 NOSIG RMK A2991
Conditions at: RCSS (SUNGSHAN/TAIPEI , TW) observed 1400 UTC 18 September 2020
Temperature: 29.0°C (84°F)
Dewpoint: 26.0°C (79°F) [RH = 84%]
Pressure (altimeter): 29.88 inches Hg (1012.0 mb)
Winds: from the E (80 degrees) at 10 MPH (9 knots; 4.6 m/s)
Visibility: 6 or more miles (10+ km)
Ceiling: at least 12,000 feet AGL
Clouds: few clouds at 1000 feet AGL
Weather: no significant weather observed at this time

METAR text: RCSS 181330Z 09009KT 9999 FEW010 29/26 Q1012 NOSIG RMK A2991
Conditions at: RCSS (SUNGSHAN/TAIPEI , TW) observed 1330 UTC 18 September 2020
Temperature: 29.0°C (84°F)
Dewpoint: 26.0°C (79°F) [RH = 84%]
Pressure (altimeter): 29.88 inches Hg (1012.0 mb)
Winds: from the E (90 degrees) at 10 MPH (9 knots; 4.6 m/s)
Visibility: 6 or more miles (10+ km)
Ceiling: at least 12,000 feet AGL
Clouds: few clouds at 1000 feet AGL
Weather: no significant weather observed at this time

Forecast for: COR
Text: TAF COR RCSS 192355Z 2000/2024 09005KT 9999 FEW010 BKN032
Forecast period: 0000 to 1200 UTC 20 September 2020
Forecast type: FROM: standard forecast or significant change
Winds: from the E (90 degrees) at 6 MPH (5 knots; 2.6 m/s)
Visibility: 6 or more miles (10+ km)
Ceiling: 3200 feet AGL
Clouds: few clouds at 1000 feet AGL
broken clouds at 3200 feet AGL
Weather: no significant weather forecast for this period
Text: TEMPO 2000/2003 30005KT 4000 TSRA FEW006 FEW010CB BKN015 BKN030
Forecast period: 0000 to 0300 UTC 20 September 2020
Forecast type: TEMPORARY: The following changes expected for less than half the time period
Winds: from the WNW (300 degrees) at 6 MPH (5 knots; 2.6 m/s)
Visibility: 2.49 miles (4.01 km)
Ceiling: 1500 feet AGL
Clouds: few clouds at 600 feet AGL
few clouds at 1000 feet AGL
broken clouds at 1500 feet AGL
Weather: TSRA  (rain associated with thunderstorm(s))
Text: TEMPO 2006/2012 08010KT
Forecast period: 0600 to 1200 UTC 20 September 2020
Forecast type: TEMPORARY: The following changes expected for less than half the time period
Winds: from the E (80 degrees) at 12 MPH (10 knots; 5.1 m/s)
Visibility: missing
Ceiling: unknown
Clouds: missing
Weather: no significant weather forecast for this period
Text: TEMPO 2010/2012 4000 TSRA FEW008 FEW010CB BKN013 BKN030
Forecast period: 1000 to 1200 UTC 20 September 2020
Forecast type: TEMPORARY: The following changes expected for less than half the time period
Visibility: 2.49 miles (4.01 km)
Ceiling: 1300 feet AGL
Clouds: few clouds at 800 feet AGL
few clouds at 1000 feet AGL
broken clouds at 1300 feet AGL
Weather: TSRA  (rain associated with thunderstorm(s))
Text: BECMG 2012/2014 10010KT
Forecast period: 1200 UTC 20 September 2020 to 0000 UTC 21 September 2020
Forecast type: BECOMING: Conditions expected to become as follows by 1400 UTC 20 September 2020
Winds: from the E (100 degrees) at 12 MPH (10 knots; 5.1 m/s)
Visibility: 6 or more miles (10+ km)
Ceiling: 3200 feet AGL
Clouds: few clouds at 1000 feet AGL
broken clouds at 3200 feet AGL
Weather: no significant weather forecast for this period
Text: TEMPO 2018/2024 FEW010 BKN020 BKN040
Forecast period: 1800 UTC 20 September 2020 to 0000 UTC 21 September 2020
Forecast type: TEMPORARY: The following changes expected for less than half the time period
Visibility: missing
Ceiling: 2000 feet AGL
Clouds: few clouds at 1000 feet AGL
broken clouds at 2000 feet AGL
broken clouds at 4000 feet AGL
Weather: no significant weather forecast for this period